createdAt,value
2019-05-09T00:00:07.169Z,7.50
2019-05-09T00:02:43.605Z,7.25
2019-05-09T00:05:17.275Z,7.10
2019-05-09T00:07:53.197Z,7.67
2019-05-09T00:10:38.489Z,7.30
2019-05-09T00:13:03.513Z,6.75
2019-05-09T00:15:37.607Z,6.97
2019-05-09T00:21:03.999Z,6.97
2019-05-09T00:23:37.345Z,7.00
2019-05-09T00:28:46.157Z,6.78
2019-05-09T00:31:30.926Z,7.42
2019-05-09T00:34:09.410Z,7.20
2019-05-09T00:36:43.875Z,6.97
2019-05-09T00:39:18.031Z,7.10
2019-05-09T00:41:53.867Z,6.60
2019-05-09T00:44:29.561Z,6.78
2019-05-09T00:47:23.846Z,7.05
2019-05-09T00:49:57.740Z,6.85
2019-05-09T00:52:33.776Z,6.80
2019-05-09T00:55:07.193Z,6.62
2019-05-09T00:57:41.305Z,6.55
2019-05-09T01:00:17.155Z,6.30
2019-05-09T01:02:51.429Z,6.30
2019-05-09T01:05:25.305Z,6.28
2019-05-09T01:07:59.311Z,6.33
2019-05-09T01:13:07.990Z,6.05
2019-05-09T01:18:15.157Z,6.53
2019-05-09T01:23:23.416Z,5.97
2019-05-09T01:25:57.631Z,6.58
2019-05-09T01:28:33.968Z,5.87
2019-05-09T01:31:07.559Z,6.20
2019-05-09T01:36:28.121Z,6.05
2019-05-09T01:39:03.262Z,6.03
2019-05-09T01:41:37.644Z,5.90
2019-05-09T01:44:13.393Z,5.65
2019-05-09T01:46:47.722Z,6.10
2019-05-09T01:49:23.279Z,6.72
2019-05-09T01:51:57.797Z,6.37
2019-05-09T01:54:33.232Z,6.25
2019-05-09T01:57:07.323Z,5.92
2019-05-09T02:02:14.525Z,5.72
2019-05-09T02:04:48.629Z,6.20
2019-05-09T02:07:23.742Z,6.12
2019-05-09T02:09:57.817Z,5.58
2019-05-09T02:15:20.063Z,8.45
2019-05-09T02:18:04.777Z,6.80
2019-05-09T02:20:37.189Z,7.47
2019-05-09T02:23:11.464Z,8.78
2019-05-09T02:25:45.709Z,10.43
2019-05-09T02:28:19.665Z,9.30
2019-05-09T02:33:28.550Z,6.83
2019-05-09T02:38:39.174Z,6.67
2019-05-09T02:41:12.446Z,6.42
2019-05-09T02:46:39.261Z,6.72
2019-05-09T02:49:13.163Z,6.62
2019-05-09T02:51:48.769Z,6.47
2019-05-09T02:54:22.911Z,6.65
2019-05-09T02:59:33.175Z,7.58
2019-05-09T03:02:11.364Z,7.30
2019-05-09T03:04:45.531Z,8.15
2019-05-09T03:09:54.675Z,6.60
2019-05-09T03:12:34.637Z,6.65
2019-05-09T03:15:05.573Z,6.87
2019-05-09T03:17:39.583Z,6.60
2019-05-09T03:23:04.255Z,6.67
2019-05-09T03:28:14.510Z,6.30
2019-05-09T03:30:59.183Z,6.28
2019-05-09T03:33:35.468Z,6.00
2019-05-09T03:36:08.097Z,5.87
2019-05-09T03:41:17.579Z,6.40
2019-05-09T03:43:50.991Z,6.70
2019-05-09T03:49:13.644Z,6.10
2019-05-09T03:51:48.213Z,6.28
2019-05-09T03:54:22.447Z,5.83
2019-05-09T03:59:31.308Z,5.95
2019-05-09T04:04:38.668Z,6.42
2019-05-09T04:07:12.706Z,6.50
2019-05-09T04:14:54.681Z,6.00
2019-05-09T04:20:04.117Z,6.15
2019-05-09T04:22:38.623Z,5.67
2019-05-09T04:25:18.108Z,5.70
2019-05-09T04:27:53.071Z,6.20
2019-05-09T04:30:27.512Z,6.72
2019-05-09T04:33:01.431Z,6.12
2019-05-09T04:35:35.605Z,6.12
2019-05-09T04:38:09.612Z,6.22
2019-05-09T04:43:26.903Z,5.72
2019-05-09T04:45:57.951Z,6.25
2019-05-09T04:48:37.595Z,6.22
2019-05-09T04:51:11.843Z,6.22
2019-05-09T04:56:20.777Z,6.08
2019-05-09T04:58:54.905Z,5.78
2019-05-09T05:04:11.752Z,6.55
2019-05-09T05:06:47.781Z,6.58
2019-05-09T05:09:21.780Z,6.12
2019-05-09T05:11:57.986Z,6.50
2019-05-09T05:14:31.421Z,6.67
2019-05-09T05:17:10.190Z,6.28
2019-05-09T05:19:41.177Z,6.75
2019-05-09T05:24:55.704Z,6.90
2019-05-09T05:27:29.089Z,8.68
2019-05-09T05:32:38.605Z,7.85
2019-05-09T05:35:20.499Z,7.78
2019-05-09T05:37:54.486Z,7.72
2019-05-09T05:40:32.967Z,8.28
2019-05-09T05:43:04.669Z,7.83
2019-05-09T05:45:40.260Z,8.30
2019-05-09T05:48:17.537Z,8.43
2019-05-09T05:50:51.590Z,8.53
2019-05-09T05:53:27.617Z,8.13
2019-05-09T05:56:01.485Z,8.80
2019-05-09T05:58:35.742Z,8.00
2019-05-09T06:01:09.863Z,8.00
2019-05-09T06:06:17.595Z,7.10
2019-05-09T06:08:51.925Z,7.15
2019-05-09T06:11:28.153Z,7.62
2019-05-09T06:14:08.704Z,7.25
2019-05-09T06:16:37.838Z,7.45
2019-05-09T06:19:11.966Z,7.80
2019-05-09T06:24:19.421Z,7.47
2019-05-09T06:26:53.517Z,7.47
2019-05-09T06:32:02.398Z,7.42
2019-05-09T06:37:11.757Z,7.67
2019-05-09T06:42:19.209Z,8.35
2019-05-09T06:47:38.984Z,7.25
2019-05-09T06:50:18.458Z,7.35
2019-05-09T06:52:52.524Z,8.25
2019-05-09T06:55:27.637Z,8.25
2019-05-09T06:58:04.018Z,7.80
2019-05-09T07:00:39.743Z,7.75
2019-05-09T07:03:18.555Z,8.33
2019-05-09T07:05:54.470Z,7.95
2019-05-09T07:08:39.449Z,7.92
2019-05-09T07:11:13.658Z,7.70
2019-05-09T07:13:47.795Z,7.55
2019-05-09T07:18:54.981Z,8.23
2019-05-09T07:21:48.502Z,8.63
2019-05-09T07:24:22.665Z,8.90
2019-05-09T07:29:31.455Z,8.28
2019-05-09T07:32:07.667Z,8.68
2019-05-09T07:34:47.411Z,8.50
2019-05-09T07:37:21.901Z,8.30
2019-05-09T07:39:57.730Z,8.43
2019-05-09T07:42:31.810Z,8.13
2019-05-09T07:45:09.114Z,8.40
2019-05-09T07:47:43.276Z,8.50
2019-05-09T07:52:52.648Z,8.60
2019-05-09T07:55:27.552Z,9.35
2019-05-09T07:58:01.668Z,8.28
2019-05-09T08:03:13.032Z,8.83
2019-05-09T08:05:45.093Z,9.23
2019-05-09T08:10:52.822Z,9.40
2019-05-09T08:18:37.444Z,8.60
2019-05-09T08:21:10.751Z,8.90
2019-05-09T08:23:44.797Z,8.25
2019-05-09T08:26:19.131Z,8.48
2019-05-09T08:28:53.217Z,8.25
2019-05-09T08:34:02.289Z,8.88
2019-05-09T08:36:38.329Z,8.08
2019-05-09T08:39:12.202Z,8.50
2019-05-09T08:41:48.523Z,8.65
2019-05-09T08:44:21.879Z,8.85
2019-05-09T08:46:57.405Z,8.65
2019-05-09T08:49:39.159Z,9.10
2019-05-09T08:52:16.342Z,8.60
2019-05-09T08:54:51.960Z,8.90
2019-05-09T08:57:28.641Z,8.78
2019-05-09T09:00:01.806Z,9.05
2019-05-09T09:05:09.150Z,8.43
2019-05-09T09:10:18.710Z,9.33
2019-05-09T09:12:52.239Z,9.00
2019-05-09T09:15:50.088Z,8.10
2019-05-09T09:18:01.897Z,8.20
2019-05-09T09:20:37.986Z,9.18
2019-05-09T09:23:11.746Z,8.18
2019-05-09T09:25:45.688Z,8.15
2019-05-09T09:28:20.092Z,8.40
2019-05-09T09:30:54.119Z,8.95
2019-05-09T09:36:02.275Z,8.63
2019-05-09T09:41:11.486Z,8.68
2019-05-09T09:43:47.650Z,8.50
2019-05-09T09:46:21.347Z,10.28
2019-05-09T09:48:55.251Z,8.85
2019-05-09T09:51:29.383Z,8.55
2019-05-09T09:56:38.622Z,8.58
2019-05-09T09:59:14.117Z,8.08
2019-05-09T10:02:01.236Z,8.60
2019-05-09T10:04:37.540Z,8.88
2019-05-09T10:07:11.157Z,9.73
2019-05-09T10:12:19.060Z,10.48
2019-05-09T10:14:57.854Z,9.40
2019-05-09T10:17:47.688Z,9.20
2019-05-09T10:20:29.109Z,9.63
2019-05-09T10:23:11.136Z,9.43
2019-05-09T10:25:38.363Z,9.00
2019-05-09T10:28:12.350Z,10.35
2019-05-09T10:30:48.491Z,10.55
2019-05-09T10:33:22.914Z,10.35
2019-05-09T10:36:03.687Z,10.50
2019-05-09T10:38:33.097Z,9.30
2019-05-09T10:41:10.997Z,9.43
2019-05-09T10:43:50.332Z,9.23
2019-05-09T10:46:51.360Z,9.78
2019-05-09T10:49:13.834Z,9.98
2019-05-09T10:51:48.524Z,9.98
2019-05-09T10:54:22.716Z,9.70
2019-05-09T11:02:05.006Z,10.10
2019-05-09T11:04:42.928Z,10.28
2019-05-09T11:07:14.830Z,10.00
2019-05-09T11:09:48.923Z,9.75
2019-05-09T11:14:59.120Z,10.63
2019-05-09T11:17:31.859Z,10.30
2019-05-09T11:20:09.101Z,10.38
2019-05-09T11:22:43.051Z,11.08
2019-05-09T11:25:17.245Z,10.63
2019-05-09T11:28:06.937Z,10.40
2019-05-09T11:30:28.159Z,10.43
2019-05-09T11:33:02.283Z,10.88
2019-05-09T11:35:37.974Z,10.75
2019-05-09T11:38:12.518Z,10.80
2019-05-09T11:40:48.335Z,10.18
2019-05-09T11:43:22.638Z,11.20
2019-05-09T11:45:58.626Z,10.63
2019-05-09T11:48:32.488Z,10.78
2019-05-09T11:51:08.830Z,11.30
2019-05-09T11:53:42.489Z,10.58
2019-05-09T11:58:51.508Z,11.18
2019-05-09T12:01:25.575Z,10.63
2019-05-09T12:06:32.959Z,10.80
2019-05-09T12:09:09.058Z,11.63
2019-05-09T12:11:44.649Z,11.40
2019-05-09T12:14:18.747Z,11.55
2019-05-09T12:19:29.317Z,12.80
2019-05-09T12:22:02.118Z,11.97
2019-05-09T12:24:38.430Z,12.30
2019-05-09T12:27:11.929Z,11.73
2019-05-09T12:29:48.331Z,11.33
2019-05-09T12:32:21.883Z,11.78
2019-05-09T12:37:31.035Z,12.78
2019-05-09T12:40:07.688Z,13.00
2019-05-09T12:42:42.118Z,12.40
2019-05-09T12:45:18.033Z,13.53
2019-05-09T12:48:06.048Z,12.20
2019-05-09T12:50:29.401Z,11.95
2019-05-09T12:53:03.693Z,13.72
2019-05-09T12:55:38.519Z,12.05
2019-05-09T12:58:27.969Z,12.70
2019-05-09T13:01:03.381Z,11.60
2019-05-09T13:03:38.256Z,12.55
2019-05-09T13:06:12.398Z,11.73
2019-05-09T13:08:47.983Z,13.05
2019-05-09T13:11:22.253Z,12.60
2019-05-09T13:16:50.680Z,11.48
2019-05-09T13:19:41.057Z,11.80
2019-05-09T13:22:15.063Z,11.88
2019-05-09T13:24:48.999Z,12.47
2019-05-09T13:27:22.997Z,12.47
2019-05-09T13:29:56.937Z,11.83
2019-05-09T13:32:30.895Z,12.47
2019-05-09T13:35:05.872Z,13.13
2019-05-09T13:37:40.191Z,11.90
2019-05-09T13:40:18.825Z,12.47
2019-05-09T13:42:52.064Z,14.20
2019-05-09T13:47:59.375Z,14.20
2019-05-09T13:50:33.527Z,13.58
2019-05-09T13:53:07.733Z,13.78
2019-05-09T13:55:41.761Z,12.85
2019-05-09T13:58:15.662Z,12.78
2019-05-09T14:00:59.290Z,12.95
2019-05-09T14:03:28.114Z,12.07
2019-05-09T14:06:01.809Z,12.25
2019-05-09T14:08:38.790Z,11.40
2019-05-09T14:11:11.538Z,11.57
2019-05-09T14:13:45.418Z,10.00
2019-05-09T14:16:22.364Z,11.93
2019-05-09T14:18:55.868Z,11.08
2019-05-09T14:21:30.715Z,12.68
2019-05-09T14:26:39.242Z,10.63
2019-05-09T14:29:13.547Z,10.70
2019-05-09T14:31:47.652Z,10.20
2019-05-09T14:34:21.749Z,10.05
2019-05-09T14:36:58.458Z,10.65
2019-05-09T14:39:31.613Z,10.35
2019-05-09T14:42:09.072Z,11.00
2019-05-09T14:44:41.983Z,10.63
2019-05-09T14:49:51.966Z,9.70
2019-05-09T14:52:28.312Z,10.60
2019-05-09T14:55:01.934Z,9.35
2019-05-09T14:57:38.380Z,10.35
2019-05-09T15:00:13.051Z,10.25
2019-05-09T15:02:48.849Z,9.08
2019-05-09T15:05:23.147Z,9.60
2019-05-09T15:10:35.295Z,9.80
2019-05-09T15:13:09.638Z,13.20
2019-05-09T15:15:43.789Z,12.98
2019-05-09T15:20:53.485Z,11.77
2019-05-09T15:23:29.241Z,13.08
2019-05-09T15:26:03.104Z,13.50
2019-05-09T15:28:38.609Z,14.78
2019-05-09T15:31:12.701Z,14.83
2019-05-09T15:33:48.632Z,14.50
2019-05-09T15:36:22.381Z,14.40
2019-05-09T15:41:29.662Z,13.43
2019-05-09T15:46:42.025Z,14.58
2019-05-09T15:49:18.357Z,16.05
2019-05-09T15:51:51.803Z,16.60
2019-05-09T15:54:25.865Z,15.35
2019-05-09T15:59:38.960Z,17.87
2019-05-09T16:02:13.588Z,17.62
2019-05-09T16:04:47.711Z,18.77
2019-05-09T16:09:55.104Z,23.45
2019-05-09T16:12:29.561Z,20.68
2019-05-09T16:15:07.780Z,20.70
2019-05-09T16:17:43.635Z,20.52
2019-05-09T16:20:36.042Z,21.52
2019-05-09T16:22:57.129Z,21.35
2019-05-09T16:25:30.564Z,20.45
2019-05-09T16:28:08.009Z,20.62
2019-05-09T16:30:44.625Z,21.97
2019-05-09T16:33:21.959Z,20.80
2019-05-09T16:35:59.632Z,20.95
2019-05-09T16:38:42.977Z,22.93
2019-05-09T16:41:10.474Z,21.70
2019-05-09T16:43:44.770Z,22.25
2019-05-09T16:46:19.256Z,22.95
2019-05-09T16:48:55.217Z,23.62
2019-05-09T16:51:31.090Z,23.52
2019-05-09T16:54:07.499Z,23.80
2019-05-09T16:56:41.845Z,22.65
2019-05-09T16:59:18.197Z,25.08
2019-05-09T17:01:53.644Z,24.90
2019-05-09T17:04:29.523Z,25.43
2019-05-09T17:07:08.418Z,26.62
2019-05-09T17:09:45.231Z,28.07
2019-05-09T17:12:22.547Z,33.00
2019-05-09T17:14:59.735Z,28.27
2019-05-09T17:17:42.429Z,28.38
2019-05-09T17:20:19.888Z,44.73
2019-05-09T17:23:14.780Z,27.67
2019-05-09T17:25:49.932Z,28.83
2019-05-09T17:28:28.284Z,28.90
2019-05-09T17:31:02.138Z,32.13
2019-05-09T17:33:37.986Z,32.75
2019-05-09T17:36:13.529Z,34.90
2019-05-09T17:38:49.070Z,39.38
2019-05-09T17:41:23.793Z,33.50
2019-05-09T17:43:58.368Z,36.95
2019-05-09T17:46:39.921Z,34.88
2019-05-09T17:49:17.345Z,33.83
2019-05-09T17:51:52.363Z,31.17
2019-05-09T17:57:20.214Z,27.02
2019-05-09T17:59:59.423Z,24.65
2019-05-09T18:02:33.954Z,25.10
2019-05-09T18:05:09.483Z,25.12
2019-05-09T18:07:43.582Z,25.43
2019-05-09T18:15:28.229Z,26.57
2019-05-09T18:18:03.409Z,25.48
2019-05-09T18:20:38.534Z,28.45
2019-05-09T18:23:12.656Z,30.30
2019-05-09T18:25:49.456Z,30.43
2019-05-09T18:28:23.770Z,31.17
2019-05-09T18:31:00.492Z,29.25
2019-05-09T18:33:53.978Z,30.12
2019-05-09T18:36:30.501Z,31.05
2019-05-09T18:39:07.575Z,30.95
2019-05-09T18:41:41.381Z,31.23
2019-05-09T18:44:15.424Z,29.80
2019-05-09T18:49:23.491Z,29.98
2019-05-09T18:52:03.712Z,30.35
2019-05-09T18:54:34.522Z,45.92
2019-05-09T18:57:09.085Z,50.45
2019-05-09T18:59:43.978Z,40.50
2019-05-09T19:02:18.375Z,35.98
2019-05-09T19:04:53.190Z,36.88
2019-05-09T19:07:28.258Z,37.05
2019-05-09T19:10:03.460Z,35.88
2019-05-09T19:12:38.114Z,34.15
2019-05-09T19:15:24.414Z,33.28
2019-05-09T19:18:00.935Z,32.83
2019-05-09T19:20:37.429Z,31.42
2019-05-09T19:23:12.210Z,31.55
2019-05-09T19:25:47.047Z,31.00
2019-05-09T19:28:24.053Z,31.25
2019-05-09T19:30:57.367Z,33.53
2019-05-09T19:33:31.723Z,34.48
2019-05-09T19:36:06.226Z,34.05
2019-05-09T19:38:40.822Z,34.75
2019-05-09T19:41:15.020Z,36.28
2019-05-09T19:43:49.147Z,34.38
2019-05-09T19:48:57.608Z,35.92
2019-05-09T19:51:31.906Z,37.98
2019-05-09T19:54:06.485Z,38.40
2019-05-09T19:56:40.971Z,38.20
2019-05-09T19:59:15.805Z,36.65
2019-05-09T20:01:50.700Z,37.88
2019-05-09T20:04:25.146Z,35.58
2019-05-09T20:06:59.534Z,36.38
2019-05-09T20:09:35.882Z,37.95
2019-05-09T20:12:14.732Z,36.38
2019-05-09T20:14:50.596Z,37.55
2019-05-09T20:17:25.016Z,36.05
2019-05-09T20:19:59.527Z,35.88
2019-05-09T20:22:33.900Z,37.63
2019-05-09T20:25:08.620Z,36.28
2019-05-09T20:27:43.396Z,37.30
2019-05-09T20:30:18.143Z,38.95
2019-05-09T20:32:52.268Z,40.30
2019-05-09T20:37:59.999Z,41.45
2019-05-09T20:40:34.545Z,44.18
2019-05-09T20:43:09.485Z,44.00
2019-05-09T20:45:44.185Z,45.60
2019-05-09T20:48:19.193Z,46.05
2019-05-09T20:50:53.781Z,47.08
2019-05-09T20:53:29.027Z,51.05
2019-05-09T20:56:03.819Z,51.53
2019-05-09T20:58:38.847Z,49.65
2019-05-09T21:01:13.977Z,49.13
2019-05-09T21:03:59.767Z,49.48
2019-05-09T21:06:25.059Z,48.65
2019-05-09T21:08:59.349Z,48.45
2019-05-09T21:11:33.937Z,49.38
2019-05-09T21:14:08.257Z,48.25
2019-05-09T21:16:42.707Z,49.27
2019-05-09T21:19:17.660Z,47.85
2019-05-09T21:21:52.444Z,48.70
2019-05-09T21:24:26.806Z,45.83
2019-05-09T21:27:01.196Z,46.92
2019-05-09T21:29:35.738Z,48.45
2019-05-09T21:32:10.307Z,47.88
2019-05-09T21:34:44.721Z,48.92
2019-05-09T21:37:18.902Z,50.17
2019-05-09T21:42:27.008Z,55.23
2019-05-09T21:45:01.482Z,53.92
2019-05-09T21:47:35.993Z,55.90
2019-05-09T21:50:10.660Z,56.00
2019-05-09T21:52:45.072Z,56.00
2019-05-09T21:55:19.575Z,56.25
2019-05-09T21:57:54.096Z,56.65
2019-05-09T22:00:32.529Z,53.68
2019-05-09T22:03:07.175Z,55.73
2019-05-09T22:05:41.323Z,54.73
2019-05-09T22:08:15.727Z,54.03
2019-05-09T22:10:49.736Z,53.10
2019-05-09T22:13:23.840Z,53.75
2019-05-09T22:15:57.763Z,52.33
2019-05-09T22:18:31.858Z,53.42
2019-05-09T22:23:39.443Z,54.08
2019-05-09T22:26:13.452Z,54.23
2019-05-09T22:28:47.694Z,54.85
2019-05-09T22:33:55.235Z,55.28
2019-05-09T22:39:02.870Z,55.85
2019-05-09T22:44:10.215Z,55.55
2019-05-09T22:49:17.593Z,55.38
2019-05-09T22:51:51.906Z,55.83
2019-05-09T22:54:26.028Z,55.70
2019-05-09T22:57:00.263Z,55.92
2019-05-09T22:59:34.263Z,57.05
2019-05-09T23:02:08.256Z,56.95
2019-05-09T23:07:15.565Z,58.78
2019-05-09T23:09:49.871Z,58.40
2019-05-09T23:12:23.823Z,58.02
2019-05-09T23:14:58.004Z,58.08
2019-05-09T23:17:32.163Z,58.48
2019-05-09T23:20:09.472Z,58.25
2019-05-09T23:22:43.509Z,58.70
2019-05-09T23:27:50.691Z,57.85
2019-05-09T23:30:24.917Z,58.23
2019-05-09T23:32:58.745Z,58.42
2019-05-09T23:35:32.712Z,58.17
2019-05-09T23:38:06.761Z,58.63
2019-05-09T23:43:13.677Z,58.83
2019-05-09T23:45:47.735Z,57.08
2019-05-09T23:50:55.174Z,59.55
2019-05-09T23:56:24.685Z,58.52
2019-05-09T23:59:16.993Z,60.10
